createdAt,value
2019-04-23T00:01:43.021Z,21.90
2019-04-23T00:04:13.371Z,21.90
2019-04-23T00:09:27.719Z,21.80
2019-04-23T00:11:51.691Z,21.80
2019-04-23T00:14:37.991Z,21.80
2019-04-23T00:17:08.583Z,21.80
2019-04-23T00:19:39.698Z,21.70
2019-04-23T00:22:36.603Z,21.70
2019-04-23T00:27:51.847Z,21.70
2019-04-23T00:30:27.563Z,21.70
2019-04-23T00:33:01.454Z,21.60
2019-04-23T00:35:33.945Z,21.60
2019-04-23T00:38:12.189Z,21.60
2019-04-23T00:40:40.385Z,21.60
2019-04-23T00:43:15.064Z,21.60
2019-04-23T00:48:31.205Z,21.60
2019-04-23T00:53:29.597Z,21.50
2019-04-23T00:56:25.024Z,21.50
2019-04-23T00:58:43.279Z,21.50
2019-04-23T01:01:11.137Z,21.50
2019-04-23T01:03:48.323Z,21.50
2019-04-23T01:08:59.931Z,21.50
2019-04-23T01:11:32.329Z,21.50
2019-04-23T01:14:06.691Z,21.50
2019-04-23T01:16:37.427Z,21.50
2019-04-23T01:19:31.714Z,21.50
2019-04-23T01:21:39.478Z,21.50
2019-04-23T01:24:25.989Z,21.50
2019-04-23T01:27:52.763Z,21.50
2019-04-23T01:30:19.818Z,21.50
2019-04-23T01:32:54.548Z,21.50
2019-04-23T01:35:28.777Z,21.40
2019-04-23T01:37:58.165Z,21.40
2019-04-23T01:40:36.560Z,21.40
2019-04-23T01:43:07.883Z,21.40
2019-04-23T01:45:34.249Z,21.40
2019-04-23T01:48:19.944Z,21.30
2019-04-23T01:50:52.854Z,21.30
2019-04-23T01:56:20.243Z,21.30
2019-04-23T01:58:57.123Z,21.20
2019-04-23T02:01:11.664Z,21.20
2019-04-23T02:03:48.523Z,21.20
2019-04-23T02:06:21.980Z,21.20
2019-04-23T02:08:52.512Z,21.20
2019-04-23T02:11:28.597Z,21.10
2019-04-23T02:14:03.284Z,21.10
2019-04-23T02:16:39.145Z,21.10
2019-04-23T02:21:52.727Z,21.10
2019-04-23T02:24:27.391Z,21.10
2019-04-23T02:26:55.884Z,21.00
2019-04-23T02:29:46.557Z,21.00
2019-04-23T02:35:09.243Z,21.00
2019-04-23T02:40:13.586Z,20.90
2019-04-23T02:42:51.867Z,20.90
2019-04-23T02:45:02.048Z,20.80
2019-04-23T02:48:01.883Z,20.80
2019-04-23T02:50:31.157Z,20.80
2019-04-23T02:52:49.657Z,20.80
2019-04-23T03:00:55.629Z,20.80
2019-04-23T03:10:52.691Z,20.80
2019-04-23T03:16:38.622Z,20.70
2019-04-23T03:19:15.190Z,20.70
2019-04-23T03:25:07.273Z,20.70
2019-04-23T03:30:16.084Z,20.70
2019-04-23T03:33:08.271Z,20.60
2019-04-23T03:40:19.134Z,20.60
2019-04-23T03:43:14.666Z,20.60
2019-04-23T03:48:17.761Z,20.60
2019-04-23T03:53:25.538Z,20.60
2019-04-23T03:55:59.563Z,20.60
2019-04-23T03:58:30.691Z,20.60
2019-04-23T04:04:06.036Z,20.50
2019-04-23T04:06:13.955Z,20.50
2019-04-23T04:08:56.256Z,20.50
2019-04-23T04:11:19.183Z,20.50
2019-04-23T04:14:01.178Z,20.50
2019-04-23T04:16:28.562Z,20.50
2019-04-23T04:19:09.240Z,20.40
2019-04-23T04:21:39.804Z,20.40
2019-04-23T04:24:21.786Z,20.40
2019-04-23T04:29:30.326Z,20.40
2019-04-23T04:31:57.150Z,20.40
2019-04-23T04:37:28.109Z,20.40
2019-04-23T04:39:34.063Z,20.40
2019-04-23T04:44:47.789Z,20.30
2019-04-23T04:47:21.449Z,20.30
2019-04-23T04:54:55.871Z,20.20
2019-04-23T04:57:36.436Z,20.30
2019-04-23T05:00:13.323Z,20.20
2019-04-23T05:05:48.439Z,20.20
2019-04-23T05:07:48.167Z,20.20
2019-04-23T05:10:34.311Z,20.20
2019-04-23T05:13:11.969Z,20.20
2019-04-23T05:15:35.269Z,20.30
2019-04-23T05:18:28.731Z,20.20
2019-04-23T05:21:05.678Z,20.20
2019-04-23T05:26:20.975Z,20.20
2019-04-23T05:31:27.857Z,20.20
2019-04-23T05:39:15.809Z,20.20
2019-04-23T05:41:41.718Z,20.20
2019-04-23T05:44:21.378Z,20.30
2019-04-23T05:46:52.099Z,20.30
2019-04-23T05:49:26.146Z,20.30
2019-04-23T05:51:58.921Z,20.30
2019-04-23T05:54:35.240Z,20.30
2019-04-23T05:57:10.304Z,20.30
2019-04-23T05:59:43.606Z,20.30
2019-04-23T06:02:11.414Z,20.30
2019-04-23T06:04:55.239Z,20.30
2019-04-23T06:10:02.865Z,20.30
2019-04-23T06:12:33.451Z,20.30
2019-04-23T06:15:05.725Z,20.30
2019-04-23T06:17:43.079Z,20.30
2019-04-23T06:20:18.192Z,20.30
2019-04-23T06:22:54.600Z,20.30
2019-04-23T06:25:42.208Z,20.30
2019-04-23T06:28:01.570Z,20.30
2019-04-23T06:30:40.834Z,20.40
2019-04-23T06:33:14.593Z,20.40
2019-04-23T06:35:45.121Z,20.40
2019-04-23T06:40:47.519Z,20.40
2019-04-23T06:43:37.475Z,20.40
2019-04-23T06:46:04.862Z,20.40
2019-04-23T06:48:35.547Z,20.40
2019-04-23T06:53:43.733Z,20.50
2019-04-23T06:56:25.012Z,20.50
2019-04-23T06:58:47.319Z,20.50
2019-04-23T07:01:29.931Z,20.50
2019-04-23T07:04:05.587Z,20.50
2019-04-23T07:06:38.324Z,20.50
2019-04-23T07:11:44.835Z,20.60
2019-04-23T07:14:13.334Z,20.70
2019-04-23T07:16:52.577Z,20.70
2019-04-23T07:19:30.250Z,20.70
2019-04-23T07:22:09.677Z,20.80
2019-04-23T07:24:34.535Z,20.80
2019-04-23T07:27:11.818Z,20.80
2019-04-23T07:29:45.748Z,20.80
2019-04-23T07:32:15.217Z,20.90
2019-04-23T07:35:01.015Z,20.90
2019-04-23T07:37:32.311Z,21.00
2019-04-23T07:40:27.114Z,21.00
2019-04-23T07:42:54.845Z,21.10
2019-04-23T07:45:45.708Z,21.10
2019-04-23T07:50:55.184Z,21.20
2019-04-23T07:53:33.518Z,21.20
2019-04-23T07:58:33.537Z,21.30
2019-04-23T08:01:11.258Z,21.30
2019-04-23T08:03:48.154Z,21.40
2019-04-23T08:06:19.389Z,21.40
2019-04-23T08:08:57.979Z,21.40
2019-04-23T08:14:04.840Z,21.50
2019-04-23T08:16:37.912Z,21.60
2019-04-23T08:19:07.448Z,21.70
2019-04-23T08:21:46.000Z,21.70
2019-04-23T08:24:50.691Z,21.80
2019-04-23T08:27:28.194Z,21.90
2019-04-23T08:30:06.113Z,22.00
2019-04-23T08:32:37.039Z,22.00
2019-04-23T08:35:14.081Z,22.10
2019-04-23T08:38:04.617Z,22.20
2019-04-23T08:40:30.731Z,22.20
2019-04-23T08:43:07.563Z,22.30
2019-04-23T08:45:58.198Z,22.40
2019-04-23T08:51:19.626Z,22.60
2019-04-23T08:56:15.066Z,22.80
2019-04-23T08:59:12.588Z,22.90
2019-04-23T09:01:29.820Z,23.10
2019-04-23T09:03:58.042Z,23.30
2019-04-23T09:06:27.775Z,23.40
2019-04-23T09:09:08.424Z,23.50
2019-04-23T09:14:05.215Z,23.70
2019-04-23T09:16:54.452Z,23.70
2019-04-23T09:19:21.467Z,23.80
2019-04-23T09:22:02.002Z,23.80
2019-04-23T09:24:32.930Z,23.90
2019-04-23T09:27:05.571Z,23.90
2019-04-23T09:29:47.476Z,23.90
2019-04-23T09:35:25.902Z,24.00
2019-04-23T09:38:11.636Z,24.00
2019-04-23T09:44:45.666Z,24.00
2019-04-23T09:47:14.426Z,24.00
2019-04-23T09:49:47.028Z,24.00
2019-04-23T09:52:21.776Z,24.10
2019-04-23T09:55:05.557Z,24.10
2019-04-23T09:57:29.665Z,24.20
2019-04-23T10:00:13.109Z,24.20
2019-04-23T10:02:29.238Z,24.30
2019-04-23T10:04:59.554Z,24.30
2019-04-23T10:07:29.925Z,24.40
2019-04-23T10:09:53.579Z,24.40
2019-04-23T10:12:28.029Z,24.50
2019-04-23T10:15:09.348Z,24.50
2019-04-23T10:17:37.962Z,24.60
2019-04-23T10:20:11.015Z,24.60
2019-04-23T10:22:44.291Z,24.60
2019-04-23T10:25:17.194Z,24.60
2019-04-23T10:27:56.547Z,24.60
2019-04-23T10:30:23.854Z,24.60
2019-04-23T10:32:57.743Z,24.60
2019-04-23T10:35:41.349Z,24.70
2019-04-23T10:38:10.398Z,24.70
2019-04-23T10:40:42.963Z,24.70
2019-04-23T10:43:12.996Z,24.80
2019-04-23T10:46:42.968Z,24.80
2019-04-23T10:49:55.410Z,24.80
2019-04-23T10:52:13.297Z,24.80
2019-04-23T10:54:43.357Z,24.80
2019-04-23T10:57:26.822Z,24.80
2019-04-23T10:59:47.355Z,24.70
2019-04-23T11:05:06.459Z,24.70
2019-04-23T11:10:10.704Z,24.60
2019-04-23T11:13:25.768Z,24.50
2019-04-23T11:18:08.846Z,24.40
2019-04-23T11:23:17.536Z,24.40
2019-04-23T11:25:49.083Z,24.30
2019-04-23T11:28:26.009Z,24.30
2019-04-23T11:31:06.936Z,24.20
2019-04-23T11:33:46.523Z,24.20
2019-04-23T11:36:43.632Z,24.20
2019-04-23T11:41:32.306Z,24.20
2019-04-23T11:43:58.922Z,24.20
2019-04-23T11:49:34.581Z,24.20
2019-04-23T11:59:31.562Z,24.10
2019-04-23T12:05:20.664Z,24.10
2019-04-23T12:08:03.550Z,24.20
2019-04-23T12:10:45.875Z,24.20
2019-04-23T12:13:21.316Z,24.20
2019-04-23T12:15:56.891Z,24.20
2019-04-23T12:18:43.657Z,24.20
2019-04-23T12:21:20.635Z,24.20
2019-04-23T12:23:59.488Z,24.20
2019-04-23T12:29:16.901Z,24.20
2019-04-23T12:31:38.498Z,24.10
2019-04-23T12:34:14.378Z,24.20
2019-04-23T12:36:51.124Z,24.20
2019-04-23T12:39:39.742Z,24.20
2019-04-23T12:42:28.290Z,24.20
2019-04-23T12:44:45.850Z,24.20
2019-04-23T12:47:25.477Z,24.30
2019-04-23T12:50:13.268Z,24.30
2019-04-23T12:52:30.745Z,24.30
2019-04-23T12:57:35.691Z,24.30
2019-04-23T13:00:09.981Z,24.40
2019-04-23T13:02:46.483Z,24.40
2019-04-23T13:05:14.455Z,24.40
2019-04-23T13:10:30.321Z,24.40
2019-04-23T13:13:01.889Z,24.40
2019-04-23T13:18:29.921Z,24.40
2019-04-23T13:20:38.508Z,24.40
2019-04-23T13:23:16.924Z,24.40
2019-04-23T13:28:35.438Z,24.50
2019-04-23T13:31:08.539Z,24.50
2019-04-23T13:36:17.711Z,24.60
2019-04-23T13:41:26.100Z,24.60
2019-04-23T13:43:48.353Z,24.60
2019-04-23T13:46:33.001Z,24.60
2019-04-23T13:49:02.815Z,24.60
2019-04-23T13:51:40.485Z,24.60
2019-04-23T13:54:16.922Z,24.60
2019-04-23T13:59:43.347Z,24.60
2019-04-23T14:02:04.031Z,24.60
2019-04-23T14:07:32.936Z,24.60
2019-04-23T14:10:11.903Z,24.60
2019-04-23T14:12:41.680Z,24.60
2019-04-23T14:15:20.500Z,24.60
2019-04-23T14:18:14.898Z,24.60
2019-04-23T14:20:23.022Z,24.60
2019-04-23T14:25:27.956Z,24.60
2019-04-23T14:30:47.604Z,24.50
2019-04-23T14:33:17.741Z,24.60
2019-04-23T14:35:45.297Z,24.50
2019-04-23T14:38:31.605Z,24.50
2019-04-23T14:41:12.556Z,24.50
2019-04-23T14:43:31.405Z,24.50
2019-04-23T14:51:32.102Z,24.50
2019-04-23T14:56:42.231Z,24.60
2019-04-23T15:01:40.087Z,24.60
2019-04-23T15:04:24.199Z,24.60
2019-04-23T15:09:27.651Z,24.60
2019-04-23T15:12:11.267Z,24.60
2019-04-23T15:17:07.538Z,24.70
2019-04-23T15:22:39.120Z,24.70
2019-04-23T15:25:13.660Z,24.70
2019-04-23T15:28:06.064Z,24.70
2019-04-23T15:29:58.200Z,24.70
2019-04-23T15:32:53.603Z,24.70
2019-04-23T15:35:49.913Z,24.70
2019-04-23T15:40:26.903Z,24.70
2019-04-23T15:43:02.762Z,24.70
2019-04-23T15:45:41.590Z,24.70
2019-04-23T15:48:11.590Z,24.70
2019-04-23T15:50:43.514Z,24.70
2019-04-23T15:53:11.505Z,24.70
2019-04-23T15:56:07.118Z,24.70
2019-04-23T16:01:31.867Z,24.70
2019-04-23T16:03:29.043Z,24.70
2019-04-23T16:06:00.074Z,24.70
2019-04-23T16:16:45.317Z,24.70
2019-04-23T16:22:04.586Z,24.70
2019-04-23T16:24:43.265Z,24.70
2019-04-23T16:27:11.119Z,24.70
2019-04-23T16:32:31.427Z,24.70
2019-04-23T16:35:12.152Z,24.60
2019-04-23T16:37:37.480Z,24.60
2019-04-23T16:40:27.942Z,24.60
2019-04-23T16:42:48.270Z,24.60
2019-04-23T16:45:29.843Z,24.60
2019-04-23T16:47:56.546Z,24.60
2019-04-23T16:50:31.095Z,24.60
2019-04-23T16:53:09.865Z,24.60
2019-04-23T16:55:45.146Z,24.60
2019-04-23T16:58:23.164Z,24.60
2019-04-23T17:01:01.117Z,24.60
2019-04-23T17:06:06.941Z,24.50
2019-04-23T17:08:42.525Z,24.50
2019-04-23T17:11:10.035Z,24.50
2019-04-23T17:13:37.735Z,24.50
2019-04-23T17:16:15.392Z,24.50
2019-04-23T17:19:09.296Z,24.40
2019-04-23T17:21:23.344Z,24.40
2019-04-23T17:26:32.247Z,24.40
2019-04-23T17:29:08.700Z,24.40
2019-04-23T17:31:38.504Z,24.30
2019-04-23T17:34:23.598Z,24.30
2019-04-23T17:37:10.450Z,24.30
2019-04-23T17:40:18.320Z,24.30
2019-04-23T17:42:50.895Z,24.30
2019-04-23T17:48:13.421Z,24.20
2019-04-23T17:50:54.669Z,24.10
2019-04-23T17:58:35.426Z,24.00
2019-04-23T18:01:20.249Z,24.00
2019-04-23T18:09:07.689Z,23.90
2019-04-23T18:16:51.941Z,23.70
2019-04-23T18:19:23.317Z,23.70
2019-04-23T18:22:22.166Z,23.70
2019-04-23T18:25:12.633Z,23.60
2019-04-23T18:30:52.731Z,23.60
2019-04-23T18:36:19.576Z,23.40
2019-04-23T18:39:02.940Z,23.40
2019-04-23T18:41:41.571Z,23.30
2019-04-23T18:44:13.336Z,23.30
2019-04-23T18:46:42.150Z,23.20
2019-04-23T18:49:22.216Z,23.20
2019-04-23T18:51:51.194Z,23.20
2019-04-23T18:54:28.305Z,23.10
2019-04-23T18:57:10.098Z,23.10
2019-04-23T19:02:51.677Z,23.00
2019-04-23T19:05:23.303Z,23.00
2019-04-23T19:08:20.934Z,22.90
2019-04-23T19:11:14.175Z,22.90
2019-04-23T19:13:47.861Z,22.80
2019-04-23T19:16:25.368Z,22.80
2019-04-23T19:18:59.622Z,22.70
2019-04-23T19:24:03.338Z,22.70
2019-04-23T19:29:21.641Z,22.60
2019-04-23T19:31:54.051Z,22.60
2019-04-23T19:34:39.301Z,22.60
2019-04-23T19:39:48.332Z,22.50
2019-04-23T19:42:28.189Z,22.40
2019-04-23T19:44:47.731Z,22.40
2019-04-23T19:47:33.304Z,22.40
2019-04-23T19:49:53.280Z,22.40
2019-04-23T19:52:51.557Z,22.40
2019-04-23T19:54:58.511Z,22.40
2019-04-23T19:57:42.538Z,22.40
2019-04-23T20:00:31.094Z,22.30
2019-04-23T20:03:06.258Z,22.30
2019-04-23T20:05:24.198Z,22.30
2019-04-23T20:10:30.082Z,22.30
2019-04-23T20:13:00.817Z,22.30
2019-04-23T20:15:51.108Z,22.30
2019-04-23T20:18:05.199Z,22.30
2019-04-23T20:20:51.435Z,22.20
2019-04-23T20:23:37.886Z,22.20
2019-04-23T20:29:19.410Z,22.20
2019-04-23T20:44:57.181Z,22.10
2019-04-23T20:47:28.075Z,22.00
2019-04-23T20:49:47.966Z,22.10
2019-04-23T20:52:20.387Z,22.00
2019-04-23T20:55:09.911Z,22.00
2019-04-23T20:57:48.513Z,22.00
2019-04-23T21:00:33.262Z,22.00
2019-04-23T21:05:33.356Z,21.90
2019-04-23T21:08:14.191Z,21.90
2019-04-23T21:10:58.245Z,22.00
2019-04-23T21:13:43.419Z,22.00
2019-04-23T21:18:35.874Z,22.00
2019-04-23T21:21:11.859Z,21.90
2019-04-23T21:23:44.163Z,22.00
2019-04-23T21:26:08.403Z,21.90
2019-04-23T21:31:28.357Z,21.90
2019-04-23T21:36:46.028Z,21.90
2019-04-23T21:39:38.635Z,21.80
2019-04-23T21:42:21.123Z,21.80
2019-04-23T21:44:52.696Z,21.90
2019-04-23T21:47:25.781Z,21.80
2019-04-23T21:52:34.825Z,21.90
2019-04-23T21:55:09.500Z,21.90
2019-04-23T21:57:53.771Z,21.80
2019-04-23T22:00:13.835Z,21.80
2019-04-23T22:03:12.137Z,21.80
2019-04-23T22:10:42.370Z,21.90
2019-04-23T22:16:01.462Z,21.90
2019-04-23T22:18:27.691Z,21.90
2019-04-23T22:20:59.515Z,22.00
2019-04-23T22:23:36.550Z,22.00
2019-04-23T22:26:07.051Z,22.00
2019-04-23T22:28:48.862Z,22.10
2019-04-23T22:33:53.444Z,22.10
2019-04-23T22:36:21.005Z,22.10
2019-04-23T22:38:59.530Z,22.10
2019-04-23T22:41:26.302Z,22.10
2019-04-23T22:44:05.403Z,22.10
2019-04-23T22:46:48.226Z,22.10
2019-04-23T22:49:24.825Z,22.10
2019-04-23T22:51:55.152Z,22.10
2019-04-23T22:54:14.145Z,22.10
2019-04-23T22:59:30.194Z,22.20
2019-04-23T23:02:25.301Z,22.20
2019-04-23T23:05:07.567Z,22.20
2019-04-23T23:07:39.446Z,22.20
2019-04-23T23:10:08.660Z,22.20
2019-04-23T23:12:52.783Z,22.20
2019-04-23T23:18:07.443Z,22.20
2019-04-23T23:20:23.768Z,22.20
2019-04-23T23:23:06.140Z,22.20
2019-04-23T23:25:31.158Z,22.20
2019-04-23T23:28:16.563Z,22.20
2019-04-23T23:30:45.260Z,22.20
2019-04-23T23:33:09.398Z,22.20
2019-04-23T23:35:43.678Z,22.20
2019-04-23T23:38:28.927Z,22.20
2019-04-23T23:41:04.863Z,22.20
2019-04-23T23:43:29.987Z,22.20
2019-04-23T23:48:35.964Z,22.20
2019-04-23T23:51:21.798Z,22.20
2019-04-23T23:54:02.019Z,22.20
2019-04-23T23:59:03.645Z,22.20
